Zellwood, Florida
Current Conditions -  °F | °C
As of 12:53 AM on Saturday 29 Nov 2014 (Local Time) from KLEE Reporting Station
Clear Clear  
Wind Chill:   Ceiling: Unl
Heat Index:   Visibility: 10mi
Dew Point:   Wind: 9mph
Humidity: 85%   Direction: 10°N
Pressure: 30.3"   Gusts: NA
Location:  28.73°N, 81.6°W
Report Text: KLEE 290553Z AUTO 01008KT 10SM CLR 07/04 A3030 RMK AO2 SLP259 T00670044 10100 20067 58009
Loading
Personal Weather Stations






























Interactive Weather Map New forecast layout! Learn more

10-Day Weather Forecast

Advertisements
Track Severe Weather on mobile